Time;durP1;ratioP1;P1;durP2;ratioP2;P2;SDS_P1;SDS_P2;PMS_P1;PMS_P2;Temp;Humidity;BMP_temperature;BMP_pressure;BME280_temperature;BME280_humidity;BME280_pressure;Samples;Min_cycle;Max_cycle;Signal;HPM_P1;HPM_P2
2023/06/22 00:00:50;;;;;;;0.70;0.70;;;19.30;99.90;;;;;;5117793;28;20039;-71
2023/06/22 00:03:18;;;;;;;0.25;0.25;;;19.30;99.90;;;;;;5117329;28;20039;-70
2023/06/22 00:05:43;;;;;;;0.30;0.30;;;19.30;99.90;;;;;;5117557;28;20087;-70
2023/06/22 00:08:10;;;;;;;1.23;1.13;;;19.30;99.90;;;;;;5117473;28;20455;-70
2023/06/22 00:10:35;;;;;;;0.40;0.40;;;19.20;99.90;;;;;;5117337;28;20046;-70
2023/06/22 00:13:01;;;;;;;0.40;0.40;;;19.20;99.90;;;;;;5117380;28;20467;-70
2023/06/22 00:15:27;;;;;;;0.40;0.40;;;19.20;99.90;;;;;;5117254;28;20042;-71
2023/06/22 00:17:52;;;;;;;0.40;0.40;;;19.20;99.90;;;;;;5117020;27;20036;-70
2023/06/22 00:20:18;;;;;;;0.40;0.40;;;19.20;99.90;;;;;;5117181;28;20110;-71
2023/06/22 00:22:44;;;;;;;0.30;0.30;;;19.20;99.90;;;;;;5117160;28;20371;-70
2023/06/22 00:25:10;;;;;;;0.30;0.30;;;19.10;99.90;;;;;;5115788;28;20157;-70
2023/06/22 00:27:36;;;;;;;0.40;0.40;;;19.10;99.90;;;;;;5117121;28;20188;-71
2023/06/22 00:30:02;;;;;;;0.32;0.32;;;19.20;99.90;;;;;;5117018;28;20269;-71
2023/06/22 00:32:28;;;;;;;0.30;0.30;;;19.10;99.90;;;;;;5115817;28;20067;-70
2023/06/22 00:34:53;;;;;;;0.30;0.30;;;19.10;99.90;;;;;;5116922;28;20083;-71
2023/06/22 00:37:19;;;;;;;0.40;0.40;;;19.10;99.90;;;;;;5116907;28;20475;-71
2023/06/22 00:39:45;;;;;;;0.60;0.50;;;19.00;99.90;;;;;;5116902;28;20046;-71
2023/06/22 00:42:10;;;;;;;0.40;0.40;;;19.00;99.90;;;;;;5116802;28;20371;-70
2023/06/22 00:44:36;;;;;;;0.63;0.63;;;19.00;99.90;;;;;;5116732;28;20043;-71
2023/06/22 00:47:03;;;;;;;0.30;0.30;;;19.00;99.90;;;;;;5116874;28;20471;-70
2023/06/22 00:49:29;;;;;;;0.40;0.40;;;18.90;99.90;;;;;;5116657;28;20130;-70
2023/06/22 00:51:55;;;;;;;0.40;0.40;;;18.90;99.90;;;;;;5116536;27;20533;-71
2023/06/22 00:54:24;;;;;;;;;;;18.90;99.90;;;;;;5116955;27;20040;-71
2023/06/22 00:56:54;;;;;;;0.40;0.40;;;18.90;99.90;;;;;;5116888;28;19916;-71
2023/06/22 00:59:21;;;;;;;0.75;0.52;;;18.80;99.90;;;;;;5116664;28;20047;-70
2023/06/22 01:01:46;;;;;;;0.43;0.43;;;18.80;99.90;;;;;;5116425;28;20085;-71
2023/06/22 01:04:12;;;;;;;0.30;0.30;;;18.90;99.90;;;;;;5116308;28;20428;-71
2023/06/22 01:06:54;;;;;;;0.40;0.40;;;18.70;99.90;;;;;;5116606;28;20349;-70
2023/06/22 01:09:27;;;;;;;0.40;0.40;;;18.70;99.90;;;;;;5116333;28;20096;-71
2023/06/22 01:11:57;;;;;;;0.40;0.40;;;18.70;99.90;;;;;;5116358;28;20039;-71
2023/06/22 01:15:00;;;;;;;0.40;0.40;;;18.70;99.90;;;;;;5116383;28;20036;-72
2023/06/22 01:17:27;;;;;;;0.40;0.40;;;18.70;99.90;;;;;;5116588;28;20064;-72
2023/06/22 01:19:55;;;;;;;0.30;0.30;;;18.60;99.90;;;;;;5116345;28;20078;-71
2023/06/22 01:22:25;;;;;;;0.40;0.40;;;18.60;99.90;;;;;;5116030;28;20378;-71
2023/06/22 01:25:16;;;;;;;0.57;0.57;;;18.60;99.90;;;;;;5115945;28;20301;-71
2023/06/22 01:28:19;;;;;;;0.50;0.50;;;18.60;99.90;;;;;;5116376;28;20043;-71
2023/06/22 01:30:46;;;;;;;0.40;0.40;;;18.50;99.90;;;;;;5115780;28;20036;-72
2023/06/22 01:33:13;;;;;;;1.08;1.00;;;18.50;99.90;;;;;;5115814;28;20051;-72
2023/06/22 01:35:40;;;;;;;0.50;0.50;;;18.40;99.90;;;;;;5115670;28;20031;-71
2023/06/22 01:38:07;;;;;;;0.50;0.50;;;18.50;99.90;;;;;;5115727;28;20039;-71
2023/06/22 01:40:34;;;;;;;0.32;0.32;;;18.40;99.90;;;;;;5114393;28;20541;-71
2023/06/22 01:43:02;;;;;;;0.30;0.30;;;18.40;99.90;;;;;;5114345;28;20498;-72
2023/06/22 01:45:27;;;;;;;0.50;0.50;;;18.30;99.90;;;;;;5115110;28;20467;-71
2023/06/22 01:47:54;;;;;;;0.50;0.50;;;18.30;99.90;;;;;;5115542;28;20084;-71
2023/06/22 01:50:20;;;;;;;0.50;0.50;;;18.30;99.90;;;;;;5115360;28;20361;-72
2023/06/22 01:52:46;;;;;;;0.40;0.40;;;18.30;99.90;;;;;;5115445;28;20488;-72
2023/06/22 01:55:12;;;;;;;1.00;0.77;;;18.30;99.90;;;;;;5115676;28;20070;-71
2023/06/22 01:57:38;;;;;;;0.40;0.40;;;18.30;99.90;;;;;;5115310;28;20031;-72
2023/06/22 02:00:15;;;;;;;0.40;0.40;;;18.20;99.90;;;;;;5115581;28;20483;-71
2023/06/22 02:03:05;;;;;;;0.50;0.50;;;18.20;99.90;;;;;;5115331;28;20040;-71
2023/06/22 02:05:37;;;;;;;0.40;0.40;;;18.20;99.90;;;;;;5115116;28;20052;-71
2023/06/22 02:08:15;;;;;;;0.40;0.40;;;18.10;99.90;;;;;;5115141;28;20051;-71
2023/06/22 02:10:42;;;;;;;0.63;0.63;;;18.10;99.90;;;;;;5115044;28;20044;-72
2023/06/22 02:13:09;;;;;;;0.45;0.45;;;18.10;99.90;;;;;;5115079;28;20376;-71
2023/06/22 02:15:36;;;;;;;0.40;0.40;;;18.00;99.90;;;;;;5114968;28;20421;-71
2023/06/22 02:18:01;;;;;;;0.40;0.40;;;18.00;99.90;;;;;;5115391;28;20122;-71
2023/06/22 02:20:27;;;;;;;0.30;0.30;;;18.00;99.90;;;;;;5114913;28;20515;-72
2023/06/22 02:22:53;;;;;;;0.40;0.40;;;18.00;99.90;;;;;;5114832;28;20122;-72
2023/06/22 02:25:19;;;;;;;0.60;0.60;;;18.00;99.90;;;;;;5114497;28;20071;-72
2023/06/22 02:27:45;;;;;;;0.50;0.50;;;17.90;99.90;;;;;;5114791;28;20035;-71
2023/06/22 02:30:12;;;;;;;0.40;0.40;;;17.90;99.90;;;;;;5114715;28;20085;-71
2023/06/22 02:32:42;;;;;;;0.40;0.40;;;17.90;99.90;;;;;;5114717;28;20364;-71
2023/06/22 02:35:09;;;;;;;0.52;0.52;;;17.80;99.90;;;;;;5113566;28;20055;-71
2023/06/22 02:37:41;;;;;;;0.40;0.40;;;17.80;99.90;;;;;;5114589;28;20509;-71
2023/06/22 02:40:08;;;;;;;0.30;0.30;;;17.80;99.90;;;;;;5113654;28;20050;-71
2023/06/22 02:42:35;;;;;;;0.50;0.50;;;17.80;99.90;;;;;;5114448;28;20356;-72
2023/06/22 02:45:00;;;;;;;0.30;0.30;;;17.80;99.90;;;;;;5114387;28;20044;-72
2023/06/22 02:47:26;;;;;;;0.40;0.40;;;17.70;99.90;;;;;;5114966;28;20062;-72
2023/06/22 02:49:52;;;;;;;0.97;0.93;;;17.70;99.90;;;;;;5114686;28;20114;-72
2023/06/22 02:52:17;;;;;;;0.30;0.30;;;17.70;99.90;;;;;;5114421;28;20046;-71
2023/06/22 02:54:45;;;;;;;0.40;0.40;;;17.60;99.90;;;;;;5114120;28;20536;-71
2023/06/22 02:57:13;;;;;;;0.40;0.40;;;17.60;99.90;;;;;;5113888;28;20093;-71
2023/06/22 02:59:40;;;;;;;0.40;0.40;;;17.60;99.90;;;;;;5114615;28;20118;-71
2023/06/22 03:02:06;;;;;;;0.52;0.52;;;17.50;99.90;;;;;;5114127;28;20118;-71
2023/06/22 03:04:32;;;;;;;0.40;0.40;;;17.50;99.90;;;;;;5113879;28;20115;-72
2023/06/22 03:07:00;;;;;;;0.33;0.33;;;17.50;99.90;;;;;;5114101;28;20105;-71
2023/06/22 03:09:27;;;;;;;0.40;0.40;;;17.50;99.90;;;;;;5114109;28;20054;-71
2023/06/22 03:11:53;;;;;;;0.30;0.30;;;17.50;99.90;;;;;;5113961;28;20045;-70
2023/06/22 03:14:19;;;;;;;0.40;0.40;;;17.50;99.90;;;;;;5113955;28;20036;-71
2023/06/22 03:16:45;;;;;;;0.30;0.30;;;17.50;99.90;;;;;;5114043;28;20034;-71
2023/06/22 03:19:10;;;;;;;0.40;0.40;;;17.40;99.90;;;;;;5113963;28;20468;-71
2023/06/22 03:21:40;;;;;;;0.40;0.40;;;17.40;99.90;;;;;;5114135;28;20395;-71
2023/06/22 03:24:07;;;;;;;0.30;0.30;;;17.40;99.90;;;;;;5114031;28;20062;-71
2023/06/22 03:26:34;;;;;;;0.52;0.52;;;17.40;99.90;;;;;;5113953;28;20126;-71
2023/06/22 03:28:59;;;;;;;0.50;0.50;;;17.40;99.90;;;;;;5114416;28;20439;-71
2023/06/22 03:31:25;;;;;;;0.87;0.87;;;17.40;99.90;;;;;;5113903;28;20127;-71
2023/06/22 03:33:51;;;;;;;1.27;1.20;;;17.40;99.90;;;;;;5113601;28;20104;-71
2023/06/22 03:36:19;;;;;;;0.40;0.40;;;17.40;99.90;;;;;;5113861;28;20126;-71
2023/06/22 03:38:46;;;;;;;0.38;0.38;;;17.40;99.90;;;;;;5113857;28;20043;-71
2023/06/22 03:41:12;;;;;;;;;;;17.40;99.90;;;;;;5114160;28;20044;-71
2023/06/22 03:43:37;;;;;;;0.40;0.40;;;17.40;99.90;;;;;;5113691;28;19923;-71
2023/06/22 03:46:03;;;;;;;0.33;0.33;;;17.40;99.90;;;;;;5113818;28;20039;-71
2023/06/22 03:48:28;;;;;;;0.40;0.40;;;17.40;99.90;;;;;;5113846;28;20047;-72
2023/06/22 03:50:54;;;;;;;0.40;0.40;;;17.50;99.90;;;;;;5113549;28;20054;-71
2023/06/22 03:53:19;;;;;;;0.40;0.40;;;17.50;99.90;;;;;;5113751;28;20043;-71
2023/06/22 03:55:52;;;;;;;0.40;0.40;;;17.50;99.90;;;;;;5113663;28;20036;-71
2023/06/22 03:58:20;;;;;;;0.85;0.77;;;17.50;99.90;;;;;;5113598;28;20123;-71
2023/06/22 04:00:50;;;;;;;0.68;0.68;;;17.50;99.90;;;;;;5113970;28;20363;-71
2023/06/22 04:03:18;;;;;;;0.30;0.30;;;17.50;99.90;;;;;;5113635;28;20043;-71
2023/06/22 04:05:44;;;;;;;0.40;0.40;;;17.50;99.90;;;;;;5113645;28;20055;-72
2023/06/22 04:08:12;;;;;;;0.30;0.30;;;17.50;99.90;;;;;;5116812;28;20051;-71
2023/06/22 04:10:38;;;;;;;0.40;0.40;;;17.50;99.90;;;;;;5117461;28;20040;-71
2023/06/22 04:13:03;;;;;;;0.40;0.40;;;17.50;99.90;;;;;;5117393;28;20045;-71
2023/06/22 04:15:29;;;;;;;0.90;0.80;;;17.50;99.90;;;;;;5117511;28;20035;-72
2023/06/22 04:17:56;;;;;;;0.40;0.40;;;17.60;99.90;;;;;;5117431;28;20035;-71
2023/06/22 04:20:22;;;;;;;0.40;0.40;;;17.60;99.90;;;;;;5117313;28;20042;-71
2023/06/22 04:22:47;;;;;;;0.60;0.60;;;17.60;99.90;;;;;;5117139;28;20118;-71
2023/06/22 04:25:13;;;;;;;0.47;0.47;;;17.70;99.90;;;;;;5117061;28;20376;-71
2023/06/22 04:27:40;;;;;;;0.40;0.40;;;17.60;99.90;;;;;;5117139;28;20047;-71
2023/06/22 04:30:07;;;;;;;0.40;0.40;;;17.70;99.90;;;;;;5117348;28;20126;-71
2023/06/22 04:32:35;;;;;;;0.40;0.40;;;17.80;99.90;;;;;;5116149;28;20140;-70
2023/06/22 04:35:06;;;;;;;0.40;0.40;;;17.80;99.90;;;;;;5116926;28;20044;-71
2023/06/22 04:37:32;;;;;;;1.73;1.63;;;17.80;99.90;;;;;;5115779;28;20092;-71
2023/06/22 04:39:58;;;;;;;0.68;0.68;;;17.80;99.90;;;;;;5116615;28;20035;-71
2023/06/22 04:42:26;;;;;;;1.03;0.77;;;17.80;99.90;;;;;;5116812;28;20051;-71
2023/06/22 04:44:52;;;;;;;0.40;0.40;;;17.80;99.90;;;;;;5115485;28;20390;-71
2023/06/22 04:47:18;;;;;;;1.03;1.03;;;17.90;99.90;;;;;;5116734;28;20048;-70
2023/06/22 04:49:43;;;;;;;0.50;0.50;;;17.80;99.90;;;;;;5116553;28;20367;-72
2023/06/22 04:52:11;;;;;;;0.40;0.40;;;17.90;99.90;;;;;;5116565;28;20080;-71
2023/06/22 04:54:40;;;;;;;0.70;0.70;;;17.90;99.90;;;;;;5116522;28;20126;-71
2023/06/22 04:57:10;;;;;;;1.83;1.73;;;17.90;99.90;;;;;;5116790;28;20047;-71
2023/06/22 04:59:38;;;;;;;1.38;1.20;;;17.90;99.90;;;;;;5116207;28;20075;-71
2023/06/22 05:02:05;;;;;;;0.65;0.65;;;18.00;99.90;;;;;;5116348;28;20085;-71
2023/06/22 05:04:31;;;;;;;;;;;18.10;99.90;;;;;;5116534;28;20517;-71
2023/06/22 05:06:57;;;;;;;0.40;0.40;;;18.10;99.90;;;;;;5116234;28;19923;-71
2023/06/22 05:09:24;;;;;;;0.50;0.50;;;18.20;99.90;;;;;;5116442;28;20163;-71
2023/06/22 05:11:50;;;;;;;0.95;0.95;;;18.20;99.90;;;;;;5116294;28;20155;-71
2023/06/22 05:14:16;;;;;;;0.40;0.40;;;18.30;99.90;;;;;;5116255;28;20502;-71
2023/06/22 05:16:42;;;;;;;0.60;0.60;;;18.30;99.90;;;;;;5116185;28;20127;-71
2023/06/22 05:19:08;;;;;;;1.30;1.20;;;18.40;99.90;;;;;;5115592;28;20035;-71
2023/06/22 05:21:35;;;;;;;0.50;0.50;;;18.40;99.90;;;;;;5115943;28;20039;-71
2023/06/22 05:24:02;;;;;;;1.75;1.15;;;18.50;99.90;;;;;;5116112;28;20044;-71
2023/06/22 05:26:33;;;;;;;0.85;0.85;;;18.70;99.90;;;;;;5115928;28;20428;-71
2023/06/22 05:29:00;;;;;;;0.60;0.60;;;18.90;99.90;;;;;;5116220;27;20391;-72
2023/06/22 05:31:26;;;;;;;0.50;0.50;;;19.00;99.90;;;;;;5115869;28;20556;-72
2023/06/22 05:33:53;;;;;;;0.87;0.87;;;19.20;99.90;;;;;;5115672;28;20070;-71
2023/06/22 05:36:25;;;;;;;1.05;1.05;;;19.50;99.90;;;;;;5115763;28;20031;-72
2023/06/22 05:38:51;;;;;;;0.50;0.50;;;19.80;99.90;;;;;;5116235;28;20367;-71
2023/06/22 05:41:17;;;;;;;;;;;20.00;99.90;;;;;;5116093;28;20036;-71
2023/06/22 05:43:43;;;;;;;0.60;0.60;;;20.20;99.90;;;;;;5115580;28;19922;-71
2023/06/22 05:46:09;;;;;;;1.17;1.07;;;20.50;99.90;;;;;;5115522;28;20044;-71
2023/06/22 05:48:34;;;;;;;0.57;0.57;;;20.80;99.90;;;;;;5115219;28;20040;-71
2023/06/22 05:51:00;;;;;;;1.00;0.90;;;21.00;99.90;;;;;;5116092;28;20494;-71
2023/06/22 05:53:26;;;;;;;0.40;0.40;;;21.10;99.90;;;;;;5115806;28;20510;-72
2023/06/22 05:55:51;;;;;;;0.77;0.77;;;21.20;99.90;;;;;;5115583;28;20039;-72
2023/06/22 05:58:17;;;;;;;0.57;0.57;;;21.20;99.90;;;;;;5115278;28;20061;-71
2023/06/22 06:00:43;;;;;;;0.40;0.40;;;21.20;99.90;;;;;;5115297;28;20463;-71
2023/06/22 06:03:09;;;;;;;1.13;0.67;;;21.30;99.90;;;;;;5115251;28;20047;-71
2023/06/22 06:05:36;;;;;;;0.40;0.40;;;21.40;99.90;;;;;;5114920;28;20130;-71
2023/06/22 06:08:04;;;;;;;0.30;0.30;;;21.60;99.90;;;;;;5115133;28;20378;-72
2023/06/22 06:10:30;;;;;;;0.30;0.30;;;21.70;99.90;;;;;;5115064;28;20428;-71
2023/06/22 06:12:56;;;;;;;0.40;0.40;;;21.70;99.90;;;;;;5114996;28;20539;-72
2023/06/22 06:15:22;;;;;;;0.50;0.50;;;21.80;99.90;;;;;;5114941;28;20122;-71
2023/06/22 06:17:49;;;;;;;0.82;0.82;;;21.80;99.90;;;;;;5114577;28;20051;-72
2023/06/22 06:20:17;;;;;;;0.30;0.30;;;21.80;99.90;;;;;;5114858;28;20040;-71
2023/06/22 06:22:43;;;;;;;0.30;0.30;;;22.00;99.90;;;;;;5114593;28;20434;-71
2023/06/22 06:25:09;;;;;;;0.97;0.63;;;22.10;99.90;;;;;;5114798;28;20122;-71
2023/06/22 06:27:35;;;;;;;0.68;0.68;;;22.10;99.90;;;;;;5114696;28;20126;-71
2023/06/22 06:30:00;;;;;;;0.30;0.30;;;22.10;99.90;;;;;;5113949;28;20378;-72
2023/06/22 06:32:26;;;;;;;2.43;0.73;;;22.20;99.90;;;;;;5114417;28;20039;-72
2023/06/22 06:34:52;;;;;;;1.33;0.50;;;22.20;99.90;;;;;;5114604;28;20041;-71
2023/06/22 06:37:18;;;;;;;0.30;0.30;;;22.20;99.90;;;;;;5114241;28;20036;-71
2023/06/22 06:39:44;;;;;;;0.90;0.60;;;22.30;99.90;;;;;;5114613;27;20122;-72
2023/06/22 06:42:11;;;;;;;0.30;0.30;;;22.40;99.90;;;;;;5114857;28;20043;-72
2023/06/22 06:44:37;;;;;;;0.30;0.30;;;22.60;99.90;;;;;;5114633;28;20040;-72
2023/06/22 06:47:03;;;;;;;;;;;22.60;99.90;;;;;;5114812;28;20043;-72
2023/06/22 06:49:29;;;;;;;1.17;1.10;;;22.50;99.90;;;;;;5114138;28;19922;-72
2023/06/22 06:51:56;;;;;;;0.40;0.40;;;22.50;99.90;;;;;;5114438;28;20533;-72
2023/06/22 06:54:21;;;;;;;;;;;22.40;99.90;;;;;;5113543;28;20093;-72
2023/06/22 06:56:48;;;;;;;0.70;0.70;;;22.30;99.90;;;;;;5114068;28;19919;-72
2023/06/22 06:59:15;;;;;;;0.85;0.80;;;22.30;99.90;;;;;;5114229;28;20475;-72
2023/06/22 07:01:41;;;;;;;0.30;0.30;;;22.20;99.90;;;;;;5114220;28;20084;-71
2023/06/22 07:04:07;;;;;;;1.23;1.15;;;22.20;99.90;;;;;;5113829;28;20050;-72
2023/06/22 07:06:33;;;;;;;0.80;0.80;;;22.20;99.90;;;;;;5114382;28;20130;-72
2023/06/22 07:09:00;;;;;;;0.40;0.40;;;22.20;99.90;;;;;;5114418;28;20039;-72
2023/06/22 07:11:27;;;;;;;0.30;0.30;;;22.10;99.90;;;;;;5114115;28;20092;-72
2023/06/22 07:13:53;;;;;;;0.47;0.47;;;22.20;99.90;;;;;;5114067;28;20035;-72
2023/06/22 07:16:18;;;;;;;0.57;0.57;;;22.30;99.90;;;;;;5113923;28;20165;-71
2023/06/22 07:18:44;;;;;;;0.40;0.40;;;22.40;99.90;;;;;;5113493;28;20036;-72
2023/06/22 07:21:10;;;;;;;0.30;0.30;;;22.60;99.90;;;;;;5114159;28;20116;-71
2023/06/22 07:23:35;;;;;;;0.80;0.80;;;22.80;99.90;;;;;;5113956;28;20039;-72
2023/06/22 07:26:01;;;;;;;0.37;0.37;;;23.00;99.90;;;;;;5113957;28;20046;-72
2023/06/22 07:28:28;;;;;;;0.93;0.75;;;23.10;99.90;;;;;;5113904;28;20039;-72
2023/06/22 07:30:53;;;;;;;;;;;23.30;99.90;;;;;;5114287;28;20042;-72
2023/06/22 07:33:19;;;;;;;1.85;1.27;;;23.30;99.90;;;;;;5113845;28;19920;-72
2023/06/22 07:35:46;;;;;;;0.40;0.40;;;23.40;99.90;;;;;;5113829;28;20459;-72
2023/06/22 07:38:12;;;;;;;0.30;0.30;;;23.40;99.90;;;;;;5113315;28;20052;-72
2023/06/22 07:40:38;;;;;;;0.33;0.33;;;23.50;99.90;;;;;;5113841;28;20069;-72
2023/06/22 07:43:03;;;;;;;0.30;0.30;;;23.50;99.90;;;;;;5117261;28;20043;-71
2023/06/22 07:45:29;;;;;;;0.40;0.40;;;23.50;99.90;;;;;;5117940;28;20028;-72
2023/06/22 07:47:55;;;;;;;0.30;0.30;;;23.70;99.90;;;;;;5117775;28;20388;-72
2023/06/22 07:50:21;;;;;;;0.60;0.60;;;23.70;99.90;;;;;;5117934;28;20038;-72
2023/06/22 07:52:47;;;;;;;0.30;0.30;;;23.70;99.90;;;;;;5117975;28;20040;-72
2023/06/22 07:55:13;;;;;;;0.40;0.40;;;23.60;99.90;;;;;;5117437;28;20040;-72
2023/06/22 07:57:39;;;;;;;0.20;0.20;;;23.70;99.90;;;;;;5117694;28;20032;-72
2023/06/22 08:00:16;;;;;;;0.30;0.30;;;23.80;99.90;;;;;;5117726;28;20307;-73
2023/06/22 08:02:42;;;;;;;0.30;0.30;;;24.00;99.90;;;;;;5117683;28;20114;-72
2023/06/22 08:05:08;;;;;;;;;;;24.00;99.90;;;;;;5117768;28;20135;-72
2023/06/22 08:07:37;;;;;;;0.52;0.50;;;24.00;99.90;;;;;;5117521;28;19915;-72
2023/06/22 08:10:04;;;;;;;0.57;0.50;;;24.10;99.90;;;;;;5117463;28;20124;-72
2023/06/22 08:12:30;;;;;;;0.40;0.40;;;24.30;99.90;;;;;;5117347;28;20463;-72
2023/06/22 08:14:56;;;;;;;0.30;0.30;;;24.40;99.90;;;;;;5117295;28;20054;-72
2023/06/22 08:17:23;;;;;;;0.75;0.75;;;24.50;99.90;;;;;;5116119;28;20425;-72
2023/06/22 08:19:48;;;;;;;0.63;0.63;;;24.60;99.90;;;;;;5117671;28;20039;-72
2023/06/22 08:22:15;;;;;;;0.40;0.40;;;24.50;99.90;;;;;;5117389;28;20051;-72
2023/06/22 08:24:41;;;;;;;;;;;24.40;99.90;;;;;;5117611;27;20083;-72
2023/06/22 08:27:13;;;;;;;0.52;0.52;;;24.50;99.90;;;;;;5117149;28;19928;-72
2023/06/22 08:29:39;;;;;;;0.70;0.68;;;24.50;99.90;;;;;;5117114;28;20047;-72
2023/06/22 08:32:05;;;;;;;0.47;0.47;;;24.60;99.90;;;;;;5117027;28;20051;-72
2023/06/22 08:34:30;;;;;;;0.40;0.40;;;24.60;99.90;;;;;;5116947;28;20038;-72
2023/06/22 08:36:56;;;;;;;0.97;0.77;;;24.70;99.90;;;;;;5116989;28;20384;-72
2023/06/22 08:39:22;;;;;;;0.30;0.30;;;24.70;99.90;;;;;;5115713;28;20472;-72
2023/06/22 08:41:48;;;;;;;0.40;0.40;;;24.80;99.90;;;;;;5116918;28;20117;-72
2023/06/22 08:44:14;;;;;;;0.30;0.30;;;24.90;99.90;;;;;;5116635;28;20040;-72
2023/06/22 08:46:40;;;;;;;0.38;0.38;;;25.10;99.90;;;;;;5116706;28;20044;-72
2023/06/22 08:49:06;;;;;;;0.40;0.40;;;25.20;99.90;;;;;;5116526;28;20483;-72
2023/06/22 08:51:32;;;;;;;0.30;0.30;;;25.20;99.90;;;;;;5116721;28;20039;-72
2023/06/22 08:53:58;;;;;;;0.53;0.53;;;25.30;99.90;;;;;;5115558;28;20045;-72
2023/06/22 08:56:23;;;;;;;0.30;0.30;;;25.30;99.90;;;;;;5116580;28;20043;-72
2023/06/22 08:58:49;;;;;;;0.40;0.40;;;25.20;99.90;;;;;;5116436;28;20043;-72
2023/06/22 09:01:15;;;;;;;0.30;0.30;;;25.30;99.90;;;;;;5116469;28;20058;-72
2023/06/22 09:03:41;;;;;;;0.75;0.75;;;25.40;99.90;;;;;;5116154;28;20043;-72
2023/06/22 09:06:09;;;;;;;;;;;25.40;99.90;;;;;;5116538;28;20139;-72
2023/06/22 09:08:35;;;;;;;1.05;1.00;;;25.40;99.90;;;;;;5116189;28;20378;-73
2023/06/22 09:11:01;;;;;;;0.30;0.30;;;25.50;99.90;;;;;;5116232;28;20036;-73
2023/06/22 09:13:27;;;;;;;0.40;0.40;;;25.70;99.90;;;;;;5116157;28;20056;-72
2023/06/22 09:15:53;;;;;;;0.38;0.38;;;25.70;99.90;;;;;;5116116;28;20050;-72
2023/06/22 09:18:19;;;;;;;0.67;0.50;;;25.80;99.90;;;;;;5116086;28;20036;-72
2023/06/22 09:20:45;;;;;;;0.30;0.30;;;25.90;99.90;;;;;;5116139;28;20044;-73
2023/06/22 09:23:10;;;;;;;0.47;0.47;;;26.10;99.90;;;;;;5116359;28;20074;-72
2023/06/22 09:25:36;;;;;;;0.63;0.63;;;26.00;99.90;;;;;;5115942;28;20079;-73
2023/06/22 09:28:02;;;;;;;0.30;0.30;;;26.00;99.90;;;;;;5115939;28;20044;-72
2023/06/22 09:30:27;;;;;;;0.30;0.30;;;26.10;99.90;;;;;;5115860;28;20051;-72
2023/06/22 09:32:54;;;;;;;0.30;0.30;;;26.10;99.90;;;;;;5115843;28;20285;-72
2023/06/22 09:35:19;;;;;;;;;;;26.10;99.90;;;;;;5116218;28;20460;-72
2023/06/22 09:37:45;;;;;;;0.60;0.60;;;26.10;99.90;;;;;;5115797;28;19915;-72
2023/06/22 09:40:12;;;;;;;0.50;0.50;;;26.10;99.90;;;;;;5115810;28;20050;-72
2023/06/22 09:42:38;;;;;;;0.40;0.40;;;26.10;99.90;;;;;;5115622;28;20273;-72
2023/06/22 09:45:05;;;;;;;0.40;0.40;;;26.10;99.90;;;;;;5116286;28;20038;-72
2023/06/22 09:47:31;;;;;;;0.30;0.30;;;26.30;99.90;;;;;;5116094;28;20043;-72
2023/06/22 09:49:59;;;;;;;0.40;0.40;;;26.40;99.90;;;;;;5115821;28;20047;-72
2023/06/22 09:52:24;;;;;;;0.30;0.30;;;26.50;99.90;;;;;;5115496;28;20043;-72
2023/06/22 09:54:50;;;;;;;0.30;0.30;;;26.60;99.90;;;;;;5115558;28;20051;-73
2023/06/22 09:57:15;;;;;;;0.43;0.43;;;26.80;99.90;;;;;;5115230;28;20046;-72
2023/06/22 09:59:41;;;;;;;0.30;0.30;;;27.00;99.90;;;;;;5115281;28;20074;-73
2023/06/22 10:02:07;;;;;;;0.52;0.52;;;26.90;99.90;;;;;;5115284;28;20040;-72
2023/06/22 10:04:34;;;;;;;0.40;0.40;;;26.80;99.90;;;;;;5115377;28;20367;-72
2023/06/22 10:07:00;;;;;;;0.50;0.50;;;26.90;99.90;;;;;;5115172;28;20042;-73
2023/06/22 10:09:26;;;;;;;0.50;0.40;;;27.00;99.90;;;;;;5115118;28;20361;-73
2023/06/22 10:11:52;;;;;;;0.30;0.30;;;27.10;99.90;;;;;;5115088;28;20042;-72
2023/06/22 10:14:18;;;;;;;0.50;0.50;;;27.10;99.90;;;;;;5114727;28;20284;-72
2023/06/22 10:16:43;;;;;;;0.30;0.30;;;27.30;99.90;;;;;;5115051;28;20123;-72
2023/06/22 10:19:09;;;;;;;1.10;0.85;;;27.50;99.90;;;;;;5114766;28;20043;-73
2023/06/22 10:21:35;;;;;;;0.40;0.40;;;27.50;99.90;;;;;;5114616;28;20043;-73
2023/06/22 10:24:05;;;;;;;0.30;0.30;;;27.50;99.90;;;;;;5114825;28;20049;-72
2023/06/22 10:26:32;;;;;;;0.30;0.30;;;27.60;99.90;;;;;;5114840;27;20036;-72
2023/06/22 10:28:59;;;;;;;0.60;0.60;;;27.60;99.90;;;;;;5115500;28;20062;-73
2023/06/22 10:31:24;;;;;;;0.30;0.30;;;27.70;99.90;;;;;;5114670;28;20494;-73
2023/06/22 10:33:50;;;;;;;0.70;0.70;;;27.80;99.90;;;;;;5114684;28;20039;-72
2023/06/22 10:36:16;;;;;;;0.60;0.60;;;27.80;99.90;;;;;;5114740;28;20047;-73
2023/06/22 10:38:41;;;;;;;0.60;0.60;;;27.90;99.90;;;;;;5114603;28;20035;-73
2023/06/22 10:41:07;;;;;;;0.40;0.40;;;27.90;99.90;;;;;;5114576;28;20118;-72
2023/06/22 10:43:32;;;;;;;0.30;0.30;;;27.80;99.90;;;;;;5114462;28;20035;-72
2023/06/22 10:45:58;;;;;;;0.53;0.53;;;27.60;99.90;;;;;;5114574;28;20027;-73
2023/06/22 10:48:24;;;;;;;0.40;0.40;;;27.60;99.90;;;;;;5114256;28;20526;-73
2023/06/22 10:50:49;;;;;;;0.30;0.30;;;27.70;99.90;;;;;;5114408;28;20133;-73
2023/06/22 10:53:15;;;;;;;0.47;0.47;;;27.80;99.90;;;;;;5114346;28;20046;-72
2023/06/22 10:55:40;;;;;;;0.50;0.50;;;28.00;99.90;;;;;;5114414;28;20407;-73
2023/06/22 10:58:06;;;;;;;0.50;0.40;;;28.00;99.90;;;;;;5114206;28;20435;-73
2023/06/22 11:00:32;;;;;;;0.45;0.32;;;28.00;99.90;;;;;;5114228;28;20043;-73
2023/06/22 11:02:58;;;;;;;0.30;0.30;;;28.10;99.90;;;;;;5114588;28;20417;-72
2023/06/22 11:05:24;;;;;;;0.30;0.30;;;28.30;99.90;;;;;;5114036;28;20094;-73
2023/06/22 11:07:50;;;;;;;0.38;0.38;;;28.40;99.90;;;;;;5113052;28;20122;-73
2023/06/22 11:10:16;;;;;;;0.30;0.30;;;28.40;99.90;;;;;;5114171;28;20478;-73
2023/06/22 11:12:42;;;;;;;0.32;0.32;;;28.50;99.90;;;;;;5114022;28;20044;-73
2023/06/22 11:15:08;;;;;;;0.30;0.30;;;28.30;99.90;;;;;;5113113;28;20051;-72
2023/06/22 11:17:34;;;;;;;;;;;28.30;99.90;;;;;;5114409;28;20383;-73
2023/06/22 11:20:00;;;;;;;0.30;0.30;;;28.10;99.90;;;;;;5114308;28;19922;-72
2023/06/22 11:22:26;;;;;;;0.40;0.40;;;28.00;99.90;;;;;;5114074;28;20039;-72
2023/06/22 11:24:51;;;;;;;0.20;0.20;;;28.00;99.90;;;;;;5113853;28;20046;-72
2023/06/22 11:27:17;;;;;;;0.30;0.30;;;28.00;99.90;;;;;;5113904;28;20031;-73
2023/06/22 11:29:43;;;;;;;1.25;1.15;;;27.90;99.90;;;;;;5113875;28;20046;-72
2023/06/22 11:32:09;;;;;;;0.28;0.28;;;28.00;99.90;;;;;;5113945;28;20039;-73
2023/06/22 11:34:34;;;;;;;0.50;0.50;;;28.00;99.90;;;;;;5114166;28;20046;-73
2023/06/22 11:37:00;;;;;;;0.45;0.45;;;27.90;99.90;;;;;;5113775;28;20035;-73
2023/06/22 11:39:29;;;;;;;0.20;0.20;;;27.70;99.90;;;;;;5113956;28;20118;-73
2023/06/22 11:41:54;;;;;;;0.30;0.30;;;27.60;99.90;;;;;;5113751;28;20032;-73
2023/06/22 11:44:20;;;;;;;0.40;0.40;;;27.50;99.90;;;;;;5114221;28;20084;-72
2023/06/22 11:46:46;;;;;;;0.40;0.40;;;27.50;99.90;;;;;;5113761;28;20084;-73
2023/06/22 11:49:11;;;;;;;0.60;0.60;;;27.60;99.90;;;;;;5113690;28;20089;-73
2023/06/22 11:51:37;;;;;;;0.30;0.30;;;27.60;99.90;;;;;;5113575;28;20079;-73
2023/06/22 11:54:03;;;;;;;0.20;0.20;;;27.60;99.90;;;;;;5113617;28;20046;-73
2023/06/22 11:56:28;;;;;;;0.30;0.30;;;27.60;99.90;;;;;;5113660;28;20282;-73
2023/06/22 11:58:54;;;;;;;0.20;0.20;;;27.70;99.90;;;;;;5113661;28;20081;-73
2023/06/22 12:01:20;;;;;;;0.30;0.30;;;27.80;99.90;;;;;;5113576;28;20035;-72
2023/06/22 12:03:46;;;;;;;;;;;27.70;99.90;;;;;;5114057;28;20586;-73
2023/06/22 12:06:12;;;;;;;2.45;1.25;;;28.00;99.90;;;;;;5113425;28;19968;-73
2023/06/22 12:08:37;;;;;;;0.30;0.30;;;28.10;99.90;;;;;;5113282;28;20044;-73
2023/06/22 12:11:03;;;;;;;0.20;0.20;;;28.10;99.90;;;;;;5113584;28;20088;-72
2023/06/22 12:13:29;;;;;;;0.20;0.20;;;28.10;99.90;;;;;;5113975;28;20506;-72
2023/06/22 12:15:54;;;;;;;0.40;0.40;;;28.00;99.90;;;;;;5113444;28;20273;-73
2023/06/22 12:18:24;;;;;;;0.33;0.33;;;28.00;99.90;;;;;;5113448;28;20047;-72
2023/06/22 12:20:49;;;;;;;0.35;0.35;;;27.90;99.90;;;;;;5113483;28;20556;-73
2023/06/22 12:23:15;;;;;;;0.47;0.47;;;27.70;99.90;;;;;;5113407;28;20066;-73
2023/06/22 12:25:41;;;;;;;0.20;0.20;;;27.60;99.90;;;;;;5113366;28;20640;-73
2023/06/22 12:28:06;;;;;;;0.27;0.27;;;27.70;99.90;;;;;;5113421;28;20281;-73
2023/06/22 12:30:35;;;;;;;0.20;0.20;;;27.60;99.90;;;;;;5117085;28;20032;-73
2023/06/22 12:33:00;;;;;;;0.20;0.20;;;27.60;99.90;;;;;;5117081;28;20043;-73
2023/06/22 12:35:26;;;;;;;0.47;0.47;;;27.60;99.90;;;;;;5116672;28;20050;-73
2023/06/22 12:37:52;;;;;;;0.30;0.30;;;27.60;99.90;;;;;;5117166;28;20039;-72
2023/06/22 12:40:18;;;;;;;0.20;0.20;;;27.60;99.90;;;;;;5116981;28;20040;-72
2023/06/22 12:42:45;;;;;;;0.20;0.20;;;27.60;99.90;;;;;;5116818;28;20047;-73
2023/06/22 12:45:10;;;;;;;0.30;0.30;;;27.60;99.90;;;;;;5116462;28;20082;-72
2023/06/22 12:47:36;;;;;;;0.38;0.38;;;27.60;99.90;;;;;;5116825;28;20079;-73